Terminal Aerodrome Forecast
Issued by NWS

Home | Current Version | Previous Version | Text Only | Print | Product List | Glossary On
Versions: 1 2 3 4 5 6 7 8 9 10 11 12 13 14 15 16 17 18
349
FTUS43 KAPX 280526
TAFAPN
TAF
KAPN 280526Z 2806/2906 00000KT P6SM VCSH SCT015 OVC050
     FM281100 00000KT 6SM -SHRA BR BKN025 OVC035
     FM281500 06005KT P6SM SCT025 OVC035
     FM281700 06008KT P6SM SCT025 BKN060
     FM290000 04005KT P6SM SCT060=

USA.gov is the U.S. government's official web portal to all federal, state and local government web resources and services.